sensor_id;sensor_type;location;lat;lon;timestamp;pressure;altitude;pressure_sealevel;temperature;humidity
550;BME280;20066;48.764;9.176;2023-01-24T00:00:45;99579.06;;;3.96;74.21
550;BME280;20066;48.764;9.176;2023-01-24T00:03:13;99579.59;;;4.07;74.82
550;BME280;20066;48.764;9.176;2023-01-24T00:05:43;99576.19;;;4.23;73.15
550;BME280;20066;48.764;9.176;2023-01-24T00:08:12;99580.25;;;4.12;74.20
550;BME280;20066;48.764;9.176;2023-01-24T00:10:41;99575.75;;;4.21;74.89
550;BME280;20066;48.764;9.176;2023-01-24T00:13:09;99576.00;;;4.99;71.85
550;BME280;20066;48.764;9.176;2023-01-24T00:15:40;99575.69;;;4.13;76.28
550;BME280;20066;48.764;9.176;2023-01-24T00:18:08;99571.16;;;4.44;73.75
550;BME280;20066;48.764;9.176;2023-01-24T00:20:35;99575.41;;;4.45;72.57
550;BME280;20066;48.764;9.176;2023-01-24T00:23:03;99567.69;;;4.83;72.08
550;BME280;20066;48.764;9.176;2023-01-24T00:25:31;99569.28;;;5.53;68.79
550;BME280;20066;48.764;9.176;2023-01-24T00:27:59;99572.38;;;4.95;69.59
550;BME280;20066;48.764;9.176;2023-01-24T00:30:26;99583.06;;;4.16;73.07
550;BME280;20066;48.764;9.176;2023-01-24T00:32:55;99581.47;;;4.94;70.18
550;BME280;20066;48.764;9.176;2023-01-24T00:35:23;99586.97;;;4.41;73.59
550;BME280;20066;48.764;9.176;2023-01-24T00:37:51;99590.13;;;4.43;73.72
550;BME280;20066;48.764;9.176;2023-01-24T00:40:19;99589.06;;;4.52;74.00
550;BME280;20066;48.764;9.176;2023-01-24T00:42:46;99582.81;;;4.26;73.66
550;BME280;20066;48.764;9.176;2023-01-24T00:45:14;99581.13;;;3.99;74.36
550;BME280;20066;48.764;9.176;2023-01-24T00:47:42;99588.97;;;4.75;72.52
550;BME280;20066;48.764;9.176;2023-01-24T00:50:11;99585.19;;;3.52;75.60
550;BME280;20066;48.764;9.176;2023-01-24T00:52:39;99584.63;;;4.17;75.19
550;BME280;20066;48.764;9.176;2023-01-24T00:55:07;99587.94;;;5.10;70.32
550;BME280;20066;48.764;9.176;2023-01-24T00:57:35;99587.44;;;4.91;68.76
550;BME280;20066;48.764;9.176;2023-01-24T01:00:03;99586.84;;;4.15;71.97
550;BME280;20066;48.764;9.176;2023-01-24T01:02:31;99578.31;;;4.75;71.80
550;BME280;20066;48.764;9.176;2023-01-24T01:04:59;99581.56;;;4.01;72.59
550;BME280;20066;48.764;9.176;2023-01-24T01:07:28;99584.91;;;4.07;73.59
550;BME280;20066;48.764;9.176;2023-01-24T01:09:56;99601.25;;;3.69;73.92
550;BME280;20066;48.764;9.176;2023-01-24T01:12:27;99598.59;;;3.69;76.73
550;BME280;20066;48.764;9.176;2023-01-24T01:14:54;99600.22;;;3.57;75.47
550;BME280;20066;48.764;9.176;2023-01-24T01:17:22;99607.41;;;4.54;73.50
550;BME280;20066;48.764;9.176;2023-01-24T01:19:50;99597.31;;;3.89;74.63
550;BME280;20066;48.764;9.176;2023-01-24T01:22:18;99594.81;;;3.84;73.14
550;BME280;20066;48.764;9.176;2023-01-24T01:24:47;99598.53;;;4.36;72.11
550;BME280;20066;48.764;9.176;2023-01-24T01:27:15;99602.44;;;4.78;69.86
550;BME280;20066;48.764;9.176;2023-01-24T01:29:43;99604.03;;;4.40;73.00
550;BME280;20066;48.764;9.176;2023-01-24T01:32:11;99600.34;;;5.40;68.57
550;BME280;20066;48.764;9.176;2023-01-24T01:34:39;99609.31;;;4.09;72.36
550;BME280;20066;48.764;9.176;2023-01-24T01:37:06;99608.16;;;4.54;71.13
550;BME280;20066;48.764;9.176;2023-01-24T01:39:34;99609.28;;;4.53;71.16
550;BME280;20066;48.764;9.176;2023-01-24T01:42:04;99607.03;;;4.38;71.79
550;BME280;20066;48.764;9.176;2023-01-24T01:44:31;99604.34;;;4.16;71.24
550;BME280;20066;48.764;9.176;2023-01-24T01:47:16;99612.91;;;4.66;72.32
550;BME280;20066;48.764;9.176;2023-01-24T01:49:48;99619.00;;;4.27;70.82
550;BME280;20066;48.764;9.176;2023-01-24T01:52:18;99610.19;;;3.96;74.42
550;BME280;20066;48.764;9.176;2023-01-24T01:54:49;99614.94;;;3.99;74.01
550;BME280;20066;48.764;9.176;2023-01-24T01:57:21;99614.50;;;4.05;72.71
550;BME280;20066;48.764;9.176;2023-01-24T01:59:51;99607.63;;;3.82;72.26
550;BME280;20066;48.764;9.176;2023-01-24T02:02:21;99606.81;;;4.04;73.64
550;BME280;20066;48.764;9.176;2023-01-24T02:04:54;99619.31;;;5.13;70.14
550;BME280;20066;48.764;9.176;2023-01-24T02:07:28;99614.44;;;5.24;68.49
550;BME280;20066;48.764;9.176;2023-01-24T02:09:57;99613.91;;;4.87;70.28
550;BME280;20066;48.764;9.176;2023-01-24T02:12:29;99616.03;;;4.59;70.76
550;BME280;20066;48.764;9.176;2023-01-24T02:15:01;99615.59;;;4.66;71.37
550;BME280;20066;48.764;9.176;2023-01-24T02:17:47;99613.94;;;4.96;69.99
550;BME280;20066;48.764;9.176;2023-01-24T02:20:31;99621.25;;;5.38;68.08
550;BME280;20066;48.764;9.176;2023-01-24T02:23:10;99612.47;;;4.73;69.54
550;BME280;20066;48.764;9.176;2023-01-24T02:25:46;99619.00;;;5.06;68.30
550;BME280;20066;48.764;9.176;2023-01-24T02:28:16;99612.44;;;5.55;68.12
550;BME280;20066;48.764;9.176;2023-01-24T02:30:45;99628.25;;;5.00;69.36
550;BME280;20066;48.764;9.176;2023-01-24T02:33:16;99634.13;;;4.80;71.25
550;BME280;20066;48.764;9.176;2023-01-24T02:35:45;99631.00;;;4.38;71.19
550;BME280;20066;48.764;9.176;2023-01-24T02:38:16;99628.84;;;3.73;74.71
550;BME280;20066;48.764;9.176;2023-01-24T02:40:46;99625.09;;;3.97;75.12
550;BME280;20066;48.764;9.176;2023-01-24T02:43:17;99633.09;;;4.98;70.45
550;BME280;20066;48.764;9.176;2023-01-24T02:45:47;99635.47;;;3.84;73.19
550;BME280;20066;48.764;9.176;2023-01-24T02:48:14;99633.63;;;4.78;72.16
550;BME280;20066;48.764;9.176;2023-01-24T02:50:42;99637.34;;;5.07;70.88
550;BME280;20066;48.764;9.176;2023-01-24T02:53:39;99643.47;;;5.08;69.30
550;BME280;20066;48.764;9.176;2023-01-24T02:56:09;99646.50;;;4.76;70.40
550;BME280;20066;48.764;9.176;2023-01-24T02:58:58;99650.25;;;4.75;71.07
550;BME280;20066;48.764;9.176;2023-01-24T03:01:26;99639.59;;;3.90;73.24
550;BME280;20066;48.764;9.176;2023-01-24T03:03:54;99638.84;;;4.21;74.21
550;BME280;20066;48.764;9.176;2023-01-24T03:06:22;99627.97;;;3.64;75.28
550;BME280;20066;48.764;9.176;2023-01-24T03:08:50;99642.94;;;4.49;73.36
550;BME280;20066;48.764;9.176;2023-01-24T03:11:17;99639.97;;;4.90;72.64
550;BME280;20066;48.764;9.176;2023-01-24T03:13:45;99645.75;;;4.84;70.74
550;BME280;20066;48.764;9.176;2023-01-24T03:16:32;99639.13;;;5.38;68.60
550;BME280;20066;48.764;9.176;2023-01-24T03:19:17;99643.75;;;4.58;72.07
550;BME280;20066;48.764;9.176;2023-01-24T03:22:02;99636.31;;;4.78;71.64
550;BME280;20066;48.764;9.176;2023-01-24T03:24:48;99630.75;;;4.04;72.52
550;BME280;20066;48.764;9.176;2023-01-24T03:27:33;99635.41;;;4.43;74.50
550;BME280;20066;48.764;9.176;2023-01-24T03:30:18;99629.91;;;3.95;74.76
550;BME280;20066;48.764;9.176;2023-01-24T03:33:05;99636.69;;;4.31;75.13
550;BME280;20066;48.764;9.176;2023-01-24T03:35:51;99632.63;;;4.03;73.68
550;BME280;20066;48.764;9.176;2023-01-24T03:38:24;99642.44;;;3.72;75.65
550;BME280;20066;48.764;9.176;2023-01-24T03:41:10;99638.06;;;4.20;75.26
550;BME280;20066;48.764;9.176;2023-01-24T03:43:38;99640.25;;;3.96;74.79
550;BME280;20066;48.764;9.176;2023-01-24T03:46:05;99647.09;;;4.11;75.50
550;BME280;20066;48.764;9.176;2023-01-24T03:48:34;99639.00;;;3.35;76.50
550;BME280;20066;48.764;9.176;2023-01-24T03:51:04;99644.03;;;3.23;77.54
550;BME280;20066;48.764;9.176;2023-01-24T03:53:49;99645.47;;;3.79;75.62
550;BME280;20066;48.764;9.176;2023-01-24T03:56:16;99651.09;;;4.00;75.76
550;BME280;20066;48.764;9.176;2023-01-24T03:58:44;99650.88;;;3.51;76.51
550;BME280;20066;48.764;9.176;2023-01-24T04:01:12;99651.09;;;4.22;75.50
550;BME280;20066;48.764;9.176;2023-01-24T04:03:41;99655.56;;;3.19;79.06
550;BME280;20066;48.764;9.176;2023-01-24T04:06:09;99651.50;;;3.93;77.76
550;BME280;20066;48.764;9.176;2023-01-24T04:08:37;99656.06;;;4.15;74.70
550;BME280;20066;48.764;9.176;2023-01-24T04:11:05;99654.69;;;3.59;76.81
550;BME280;20066;48.764;9.176;2023-01-24T04:13:32;99654.00;;;3.53;77.51
550;BME280;20066;48.764;9.176;2023-01-24T04:16:00;99645.88;;;3.72;75.28
550;BME280;20066;48.764;9.176;2023-01-24T04:18:28;99645.53;;;3.87;75.61
550;BME280;20066;48.764;9.176;2023-01-24T04:21:00;99646.38;;;3.74;76.61
550;BME280;20066;48.764;9.176;2023-01-24T04:23:28;99645.44;;;3.57;79.15
550;BME280;20066;48.764;9.176;2023-01-24T04:25:57;99642.47;;;3.58;77.41
550;BME280;20066;48.764;9.176;2023-01-24T04:28:26;99639.34;;;3.56;78.11
550;BME280;20066;48.764;9.176;2023-01-24T04:30:58;99639.41;;;3.29;78.60
550;BME280;20066;48.764;9.176;2023-01-24T04:33:26;99637.88;;;4.17;76.90
550;BME280;20066;48.764;9.176;2023-01-24T04:35:59;99650.25;;;4.75;72.73
550;BME280;20066;48.764;9.176;2023-01-24T04:38:27;99646.66;;;4.40;74.64
550;BME280;20066;48.764;9.176;2023-01-24T04:40:58;99647.19;;;4.90;71.39
550;BME280;20066;48.764;9.176;2023-01-24T04:43:27;99646.25;;;3.79;77.62
550;BME280;20066;48.764;9.176;2023-01-24T04:45:55;99649.22;;;3.42;78.19
550;BME280;20066;48.764;9.176;2023-01-24T04:48:23;99654.94;;;3.93;75.95
550;BME280;20066;48.764;9.176;2023-01-24T04:50:51;99654.50;;;3.56;77.30
550;BME280;20066;48.764;9.176;2023-01-24T04:53:20;99659.16;;;4.39;75.62
550;BME280;20066;48.764;9.176;2023-01-24T04:55:48;99657.78;;;4.42;73.21
550;BME280;20066;48.764;9.176;2023-01-24T04:58:16;99662.19;;;4.24;74.83
550;BME280;20066;48.764;9.176;2023-01-24T05:00:44;99652.94;;;4.44;73.94
550;BME280;20066;48.764;9.176;2023-01-24T05:03:11;99658.34;;;4.30;73.79
550;BME280;20066;48.764;9.176;2023-01-24T05:05:39;99668.50;;;4.28;73.63
550;BME280;20066;48.764;9.176;2023-01-24T05:08:07;99676.44;;;3.25;78.94
550;BME280;20066;48.764;9.176;2023-01-24T05:10:36;99664.06;;;3.79;77.44
550;BME280;20066;48.764;9.176;2023-01-24T05:13:03;99656.53;;;3.95;74.89
550;BME280;20066;48.764;9.176;2023-01-24T05:15:31;99667.28;;;4.12;75.75
550;BME280;20066;48.764;9.176;2023-01-24T05:17:59;99669.25;;;3.62;75.48
550;BME280;20066;48.764;9.176;2023-01-24T05:20:27;99659.59;;;3.66;77.27
550;BME280;20066;48.764;9.176;2023-01-24T05:22:55;99678.97;;;3.30;79.03
550;BME280;20066;48.764;9.176;2023-01-24T05:25:24;99666.59;;;3.62;77.85
550;BME280;20066;48.764;9.176;2023-01-24T05:27:53;99674.56;;;3.26;78.38
550;BME280;20066;48.764;9.176;2023-01-24T05:30:21;99672.31;;;3.69;79.87
550;BME280;20066;48.764;9.176;2023-01-24T05:32:48;99680.59;;;3.89;78.07
550;BME280;20066;48.764;9.176;2023-01-24T05:35:16;99677.81;;;3.72;75.27
550;BME280;20066;48.764;9.176;2023-01-24T05:37:44;99686.66;;;3.81;75.89
550;BME280;20066;48.764;9.176;2023-01-24T05:40:12;99680.66;;;3.76;78.84
550;BME280;20066;48.764;9.176;2023-01-24T05:42:40;99685.94;;;4.12;75.59
550;BME280;20066;48.764;9.176;2023-01-24T05:45:10;99692.81;;;3.68;77.48
550;BME280;20066;48.764;9.176;2023-01-24T05:47:38;99692.53;;;3.56;78.40
550;BME280;20066;48.764;9.176;2023-01-24T05:50:06;99692.59;;;3.01;82.04
550;BME280;20066;48.764;9.176;2023-01-24T05:52:34;99697.72;;;3.11;79.07
550;BME280;20066;48.764;9.176;2023-01-24T05:55:03;99696.44;;;3.72;80.07
550;BME280;20066;48.764;9.176;2023-01-24T05:57:30;99692.34;;;4.11;77.26
550;BME280;20066;48.764;9.176;2023-01-24T05:59:58;99688.88;;;3.66;78.69
550;BME280;20066;48.764;9.176;2023-01-24T06:02:28;99701.34;;;4.68;71.85
550;BME280;20066;48.764;9.176;2023-01-24T06:04:56;99696.47;;;3.59;77.89
550;BME280;20066;48.764;9.176;2023-01-24T06:07:23;99698.03;;;3.96;75.83
550;BME280;20066;48.764;9.176;2023-01-24T06:09:51;99691.63;;;3.97;76.64
550;BME280;20066;48.764;9.176;2023-01-24T06:12:19;99699.56;;;4.63;72.91
550;BME280;20066;48.764;9.176;2023-01-24T06:14:47;99696.66;;;3.98;75.82
550;BME280;20066;48.764;9.176;2023-01-24T06:17:14;99698.22;;;3.99;77.13
550;BME280;20066;48.764;9.176;2023-01-24T06:19:44;99692.34;;;3.52;76.72
550;BME280;20066;48.764;9.176;2023-01-24T06:22:18;99704.50;;;4.25;77.30
550;BME280;20066;48.764;9.176;2023-01-24T06:24:49;99707.47;;;4.46;75.98
550;BME280;20066;48.764;9.176;2023-01-24T06:27:17;99714.06;;;4.80;71.93
550;BME280;20066;48.764;9.176;2023-01-24T06:29:45;99697.88;;;4.23;75.14
550;BME280;20066;48.764;9.176;2023-01-24T06:32:22;99696.22;;;3.82;77.74
550;BME280;20066;48.764;9.176;2023-01-24T06:35:11;99714.00;;;5.02;72.31
550;BME280;20066;48.764;9.176;2023-01-24T06:37:46;99709.56;;;3.55;77.95
550;BME280;20066;48.764;9.176;2023-01-24T06:40:16;99713.06;;;4.00;76.80
550;BME280;20066;48.764;9.176;2023-01-24T06:42:45;99718.13;;;3.66;77.21
550;BME280;20066;48.764;9.176;2023-01-24T06:45:13;99720.78;;;4.46;74.50
550;BME280;20066;48.764;9.176;2023-01-24T06:47:41;99725.31;;;3.65;79.09
550;BME280;20066;48.764;9.176;2023-01-24T06:50:14;99715.19;;;3.89;76.05
550;BME280;20066;48.764;9.176;2023-01-24T06:52:44;99720.53;;;4.34;76.84
550;BME280;20066;48.764;9.176;2023-01-24T06:55:12;99722.84;;;4.27;75.88
550;BME280;20066;48.764;9.176;2023-01-24T06:57:40;99731.13;;;4.03;74.01
550;BME280;20066;48.764;9.176;2023-01-24T07:00:09;99736.47;;;4.79;73.50
550;BME280;20066;48.764;9.176;2023-01-24T07:02:37;99728.41;;;3.31;78.95
550;BME280;20066;48.764;9.176;2023-01-24T07:05:05;99741.50;;;3.28;79.73
550;BME280;20066;48.764;9.176;2023-01-24T07:07:34;99740.09;;;4.07;77.91
550;BME280;20066;48.764;9.176;2023-01-24T07:10:02;99743.03;;;3.70;77.84
550;BME280;20066;48.764;9.176;2023-01-24T07:12:30;99743.00;;;4.42;75.76
550;BME280;20066;48.764;9.176;2023-01-24T07:14:58;99743.81;;;3.70;76.58
550;BME280;20066;48.764;9.176;2023-01-24T07:17:26;99740.59;;;3.46;79.74
550;BME280;20066;48.764;9.176;2023-01-24T07:19:54;99746.91;;;3.09;80.75
550;BME280;20066;48.764;9.176;2023-01-24T07:22:23;99749.28;;;3.51;81.21
550;BME280;20066;48.764;9.176;2023-01-24T07:24:52;99754.69;;;3.33;79.18
550;BME280;20066;48.764;9.176;2023-01-24T07:27:21;99756.06;;;3.17;80.62
550;BME280;20066;48.764;9.176;2023-01-24T07:29:48;99756.41;;;3.78;77.53
550;BME280;20066;48.764;9.176;2023-01-24T07:32:16;99757.06;;;4.87;74.29
550;BME280;20066;48.764;9.176;2023-01-24T07:34:44;99765.16;;;5.04;73.54
550;BME280;20066;48.764;9.176;2023-01-24T07:37:12;99753.97;;;5.41;71.48
550;BME280;20066;48.764;9.176;2023-01-24T07:39:40;99757.91;;;4.96;70.49
550;BME280;20066;48.764;9.176;2023-01-24T07:42:10;99761.38;;;4.07;74.15
550;BME280;20066;48.764;9.176;2023-01-24T07:44:38;99769.47;;;4.38;74.82
550;BME280;20066;48.764;9.176;2023-01-24T07:47:06;99772.16;;;3.88;78.54
550;BME280;20066;48.764;9.176;2023-01-24T07:49:33;99773.72;;;3.12;78.16
550;BME280;20066;48.764;9.176;2023-01-24T07:52:01;99777.53;;;3.34;79.12
550;BME280;20066;48.764;9.176;2023-01-24T07:54:29;99779.97;;;3.71;79.21
550;BME280;20066;48.764;9.176;2023-01-24T07:56:57;99786.97;;;3.81;77.37
550;BME280;20066;48.764;9.176;2023-01-24T07:59:26;99796.75;;;3.58;80.04
550;BME280;20066;48.764;9.176;2023-01-24T08:02:03;99791.34;;;3.36;78.98
550;BME280;20066;48.764;9.176;2023-01-24T08:04:31;99792.50;;;3.57;77.65
550;BME280;20066;48.764;9.176;2023-01-24T08:07:01;99800.19;;;4.08;75.21
550;BME280;20066;48.764;9.176;2023-01-24T08:09:44;99797.50;;;4.00;77.04
550;BME280;20066;48.764;9.176;2023-01-24T08:12:12;99795.78;;;4.04;77.09
550;BME280;20066;48.764;9.176;2023-01-24T08:14:41;99799.38;;;4.57;74.41
550;BME280;20066;48.764;9.176;2023-01-24T08:17:09;99796.63;;;3.63;78.02
550;BME280;20066;48.764;9.176;2023-01-24T08:19:37;99796.56;;;4.62;74.29
550;BME280;20066;48.764;9.176;2023-01-24T08:22:21;99805.81;;;3.30;78.34
550;BME280;20066;48.764;9.176;2023-01-24T08:24:49;99808.69;;;4.10;76.20
550;BME280;20066;48.764;9.176;2023-01-24T08:27:17;99812.50;;;4.98;73.72
550;BME280;20066;48.764;9.176;2023-01-24T08:29:46;99811.25;;;4.02;74.10
550;BME280;20066;48.764;9.176;2023-01-24T08:32:14;99820.88;;;4.83;73.88
550;BME280;20066;48.764;9.176;2023-01-24T08:34:42;99811.88;;;4.35;74.02
550;BME280;20066;48.764;9.176;2023-01-24T08:37:09;99816.50;;;4.07;73.44
550;BME280;20066;48.764;9.176;2023-01-24T08:39:37;99817.31;;;3.80;76.92
550;BME280;20066;48.764;9.176;2023-01-24T08:42:07;99817.91;;;4.26;75.31
550;BME280;20066;48.764;9.176;2023-01-24T08:44:35;99821.31;;;4.77;72.85
550;BME280;20066;48.764;9.176;2023-01-24T08:47:04;99817.97;;;4.35;74.96
550;BME280;20066;48.764;9.176;2023-01-24T08:49:32;99821.94;;;3.88;75.60
550;BME280;20066;48.764;9.176;2023-01-24T08:51:59;99822.97;;;4.14;76.71
550;BME280;20066;48.764;9.176;2023-01-24T08:54:28;99826.84;;;4.89;72.98
550;BME280;20066;48.764;9.176;2023-01-24T08:56:56;99838.06;;;4.55;73.34
550;BME280;20066;48.764;9.176;2023-01-24T08:59:23;99827.28;;;4.24;75.39
550;BME280;20066;48.764;9.176;2023-01-24T09:01:51;99842.78;;;4.08;75.68
550;BME280;20066;48.764;9.176;2023-01-24T09:04:20;99833.63;;;4.95;72.98
550;BME280;20066;48.764;9.176;2023-01-24T09:06:51;99836.03;;;3.47;76.84
550;BME280;20066;48.764;9.176;2023-01-24T09:09:18;99833.41;;;4.38;75.12
550;BME280;20066;48.764;9.176;2023-01-24T09:11:46;99838.22;;;5.03;72.77
550;BME280;20066;48.764;9.176;2023-01-24T09:14:14;99832.38;;;3.98;76.03
550;BME280;20066;48.764;9.176;2023-01-24T09:16:42;99835.44;;;4.41;75.16
550;BME280;20066;48.764;9.176;2023-01-24T09:19:10;99837.78;;;4.07;74.98
550;BME280;20066;48.764;9.176;2023-01-24T09:21:40;99847.16;;;4.54;73.51
550;BME280;20066;48.764;9.176;2023-01-24T09:24:07;99847.97;;;3.91;76.49
550;BME280;20066;48.764;9.176;2023-01-24T09:26:35;99850.59;;;4.54;73.68
550;BME280;20066;48.764;9.176;2023-01-24T09:29:03;99845.44;;;4.22;75.16
550;BME280;20066;48.764;9.176;2023-01-24T09:31:32;99850.44;;;3.60;76.68
550;BME280;20066;48.764;9.176;2023-01-24T09:34:00;99849.31;;;4.02;77.29
550;BME280;20066;48.764;9.176;2023-01-24T09:36:27;99856.16;;;4.89;72.50
550;BME280;20066;48.764;9.176;2023-01-24T09:38:57;99851.59;;;5.12;73.52
550;BME280;20066;48.764;9.176;2023-01-24T09:41:41;99856.97;;;4.17;76.88
550;BME280;20066;48.764;9.176;2023-01-24T09:44:17;99864.38;;;4.92;73.38
550;BME280;20066;48.764;9.176;2023-01-24T09:46:52;99859.94;;;4.16;73.44
550;BME280;20066;48.764;9.176;2023-01-24T09:49:33;99843.94;;;3.80;75.14
550;BME280;20066;48.764;9.176;2023-01-24T09:52:06;99850.75;;;5.02;72.00
550;BME280;20066;48.764;9.176;2023-01-24T09:54:50;99858.72;;;4.00;74.02
550;BME280;20066;48.764;9.176;2023-01-24T09:57:26;99851.56;;;4.58;73.68
550;BME280;20066;48.764;9.176;2023-01-24T09:59:58;99858.28;;;5.00;71.75
550;BME280;20066;48.764;9.176;2023-01-24T10:02:30;99851.50;;;4.94;71.63
550;BME280;20066;48.764;9.176;2023-01-24T10:04:59;99856.63;;;5.13;70.62
550;BME280;20066;48.764;9.176;2023-01-24T10:07:55;99855.25;;;4.49;74.34
550;BME280;20066;48.764;9.176;2023-01-24T10:10:36;99866.09;;;3.89;76.47
550;BME280;20066;48.764;9.176;2023-01-24T10:13:16;99865.38;;;4.11;74.55
550;BME280;20066;48.764;9.176;2023-01-24T10:15:58;99867.47;;;3.86;75.00
550;BME280;20066;48.764;9.176;2023-01-24T10:18:37;99862.47;;;4.71;74.11
550;BME280;20066;48.764;9.176;2023-01-24T10:21:26;99857.72;;;5.43;69.92
550;BME280;20066;48.764;9.176;2023-01-24T10:23:59;99859.00;;;5.15;71.35
550;BME280;20066;48.764;9.176;2023-01-24T10:26:34;99852.16;;;4.55;71.96
550;BME280;20066;48.764;9.176;2023-01-24T10:29:11;99856.16;;;4.44;73.32
550;BME280;20066;48.764;9.176;2023-01-24T10:31:42;99854.25;;;4.81;71.21
550;BME280;20066;48.764;9.176;2023-01-24T10:34:15;99849.28;;;4.29;73.16
550;BME280;20066;48.764;9.176;2023-01-24T10:36:48;99851.16;;;4.15;74.06
550;BME280;20066;48.764;9.176;2023-01-24T10:39:17;99852.59;;;4.71;72.03
550;BME280;20066;48.764;9.176;2023-01-24T10:41:46;99848.78;;;5.47;69.25
550;BME280;20066;48.764;9.176;2023-01-24T10:44:15;99843.50;;;4.72;71.07
550;BME280;20066;48.764;9.176;2023-01-24T10:46:57;99845.00;;;5.09;72.22
550;BME280;20066;48.764;9.176;2023-01-24T10:49:29;99838.44;;;4.84;71.63
550;BME280;20066;48.764;9.176;2023-01-24T10:52:14;99845.44;;;5.02;72.87
550;BME280;20066;48.764;9.176;2023-01-24T10:54:45;99839.16;;;5.29;71.01
550;BME280;20066;48.764;9.176;2023-01-24T10:57:42;99838.66;;;5.67;68.39
550;BME280;20066;48.764;9.176;2023-01-24T11:00:29;99837.44;;;5.33;70.67
550;BME280;20066;48.764;9.176;2023-01-24T11:03:01;99841.50;;;5.00;68.87
550;BME280;20066;48.764;9.176;2023-01-24T11:05:39;99831.16;;;5.29;69.08
550;BME280;20066;48.764;9.176;2023-01-24T11:08:17;99830.84;;;5.00;71.80
550;BME280;20066;48.764;9.176;2023-01-24T11:10:45;99829.44;;;5.81;69.43
550;BME280;20066;48.764;9.176;2023-01-24T11:13:36;99827.06;;;5.80;69.50
550;BME280;20066;48.764;9.176;2023-01-24T11:16:07;99833.78;;;5.60;69.67
550;BME280;20066;48.764;9.176;2023-01-24T11:18:48;99828.53;;;5.38;68.62
550;BME280;20066;48.764;9.176;2023-01-24T11:21:19;99827.03;;;4.92;72.10
550;BME280;20066;48.764;9.176;2023-01-24T11:23:59;99826.47;;;5.04;70.19
550;BME280;20066;48.764;9.176;2023-01-24T11:26:29;99832.34;;;5.63;68.96
550;BME280;20066;48.764;9.176;2023-01-24T11:29:00;99828.78;;;4.97;70.62
550;BME280;20066;48.764;9.176;2023-01-24T11:31:35;99823.59;;;5.23;69.80
550;BME280;20066;48.764;9.176;2023-01-24T11:34:40;99831.25;;;5.64;69.60
550;BME280;20066;48.764;9.176;2023-01-24T11:37:28;99820.81;;;5.36;69.23
550;BME280;20066;48.764;9.176;2023-01-24T11:40:05;99820.53;;;5.38;70.11
550;BME280;20066;48.764;9.176;2023-01-24T11:42:45;99822.50;;;5.72;68.66
550;BME280;20066;48.764;9.176;2023-01-24T11:48:10;99818.47;;;5.92;68.57
550;BME280;20066;48.764;9.176;2023-01-24T11:50:55;99806.97;;;4.95;69.37
550;BME280;20066;48.764;9.176;2023-01-24T11:56:45;99813.81;;;6.32;66.23
550;BME280;20066;48.764;9.176;2023-01-24T11:59:43;99802.94;;;5.37;70.33
550;BME280;20066;48.764;9.176;2023-01-24T12:02:32;99812.03;;;6.01;67.46
550;BME280;20066;48.764;9.176;2023-01-24T12:05:23;99804.13;;;5.79;69.83
550;BME280;20066;48.764;9.176;2023-01-24T12:08:00;99796.66;;;5.41;69.23
550;BME280;20066;48.764;9.176;2023-01-24T12:10:49;99800.13;;;6.07;67.53
550;BME280;20066;48.764;9.176;2023-01-24T12:13:44;99786.09;;;4.88;70.89
550;BME280;20066;48.764;9.176;2023-01-24T12:16:22;99791.56;;;5.14;69.66
550;BME280;20066;48.764;9.176;2023-01-24T12:19:09;99784.50;;;5.66;69.27
550;BME280;20066;48.764;9.176;2023-01-24T12:21:41;99779.66;;;5.77;68.33
550;BME280;20066;48.764;9.176;2023-01-24T12:24:11;99781.72;;;5.32;70.32
550;BME280;20066;48.764;9.176;2023-01-24T12:26:44;99788.81;;;5.36;70.05
550;BME280;20066;48.764;9.176;2023-01-24T12:29:17;99786.44;;;5.35;69.20
550;BME280;20066;48.764;9.176;2023-01-24T12:31:49;99783.06;;;5.12;71.27
550;BME280;20066;48.764;9.176;2023-01-24T12:34:31;99787.75;;;5.46;69.37
550;BME280;20066;48.764;9.176;2023-01-24T12:37:04;99791.00;;;6.00;67.63
550;BME280;20066;48.764;9.176;2023-01-24T12:39:44;99791.16;;;4.45;72.97
550;BME280;20066;48.764;9.176;2023-01-24T12:42:17;99781.81;;;5.18;72.49
550;BME280;20066;48.764;9.176;2023-01-24T12:44:49;99774.88;;;4.78;71.52
550;BME280;20066;48.764;9.176;2023-01-24T12:47:31;99778.47;;;4.73;71.59
550;BME280;20066;48.764;9.176;2023-01-24T12:50:15;99771.44;;;4.55;72.36
550;BME280;20066;48.764;9.176;2023-01-24T12:52:50;99775.69;;;4.56;73.50
550;BME280;20066;48.764;9.176;2023-01-24T12:55:23;99777.22;;;5.50;69.55
550;BME280;20066;48.764;9.176;2023-01-24T12:57:58;99775.56;;;5.14;70.31
550;BME280;20066;48.764;9.176;2023-01-24T13:00:32;99769.78;;;4.90;71.09
550;BME280;20066;48.764;9.176;2023-01-24T13:03:28;99770.81;;;4.80;71.29
550;BME280;20066;48.764;9.176;2023-01-24T13:06:08;99773.13;;;4.06;74.10
550;BME280;20066;48.764;9.176;2023-01-24T13:08:43;99773.19;;;4.82;74.29
550;BME280;20066;48.764;9.176;2023-01-24T13:11:19;99777.22;;;3.76;75.71
550;BME280;20066;48.764;9.176;2023-01-24T13:13:57;99772.50;;;4.09;76.00
550;BME280;20066;48.764;9.176;2023-01-24T13:16:41;99773.34;;;5.07;72.15
550;BME280;20066;48.764;9.176;2023-01-24T13:19:21;99774.38;;;4.45;73.45
550;BME280;20066;48.764;9.176;2023-01-24T13:22:01;99770.47;;;4.73;72.79
550;BME280;20066;48.764;9.176;2023-01-24T13:24:46;99776.31;;;5.63;70.90
550;BME280;20066;48.764;9.176;2023-01-24T13:27:26;99781.94;;;4.15;76.04
550;BME280;20066;48.764;9.176;2023-01-24T13:30:05;99779.97;;;4.88;71.60
550;BME280;20066;48.764;9.176;2023-01-24T13:32:40;99778.06;;;4.57;73.30
550;BME280;20066;48.764;9.176;2023-01-24T13:35:16;99779.59;;;5.12;71.73
550;BME280;20066;48.764;9.176;2023-01-24T13:37:54;99782.41;;;5.55;69.54
550;BME280;20066;48.764;9.176;2023-01-24T13:40:25;99781.94;;;5.44;70.15
550;BME280;20066;48.764;9.176;2023-01-24T13:42:56;99774.88;;;5.00;68.80
550;BME280;20066;48.764;9.176;2023-01-24T13:45:57;99783.28;;;5.81;68.41
550;BME280;20066;48.764;9.176;2023-01-24T13:48:54;99773.22;;;5.21;72.41
550;BME280;20066;48.764;9.176;2023-01-24T13:51:34;99770.34;;;4.78;74.18
550;BME280;20066;48.764;9.176;2023-01-24T13:54:18;99768.84;;;4.94;71.93
550;BME280;20066;48.764;9.176;2023-01-24T14:03:14;99770.13;;;4.66;73.57
550;BME280;20066;48.764;9.176;2023-01-24T14:05:46;99771.44;;;4.55;72.99
550;BME280;20066;48.764;9.176;2023-01-24T14:08:32;99779.34;;;4.38;73.65
550;BME280;20066;48.764;9.176;2023-01-24T14:11:22;99785.03;;;4.98;71.07
550;BME280;20066;48.764;9.176;2023-01-24T14:13:57;99775.22;;;4.76;72.07